createdAt,value
2023-01-18T00:02:50.176Z,3.00
2023-01-18T00:05:54.817Z,3.07
2023-01-18T00:08:58.021Z,3.10
2023-01-18T00:12:00.875Z,3.07
2023-01-18T00:15:03.963Z,3.09
2023-01-18T00:18:07.253Z,3.12
2023-01-18T00:21:12.103Z,3.19
2023-01-18T00:24:15.140Z,3.19
2023-01-18T00:27:17.823Z,3.24
2023-01-18T00:30:26.495Z,3.21
2023-01-18T00:33:29.051Z,3.29
2023-01-18T00:36:32.143Z,3.23
2023-01-18T00:39:35.441Z,3.17
2023-01-18T00:42:57.148Z,3.17
2023-01-18T00:46:00.039Z,3.20
2023-01-18T00:49:03.109Z,3.27
2023-01-18T00:52:05.658Z,3.34
2023-01-18T00:55:12.518Z,3.32
2023-01-18T00:58:15.194Z,3.36
2023-01-18T01:01:18.274Z,3.40
2023-01-18T01:04:39.675Z,3.42
2023-01-18T01:07:42.451Z,3.51
2023-01-18T01:10:49.258Z,3.54
2023-01-18T01:14:10.747Z,3.55
2023-01-18T01:17:32.333Z,3.60
2023-01-18T01:20:54.631Z,3.65
2023-01-18T01:24:16.082Z,3.85
2023-01-18T01:27:19.042Z,3.75
2023-01-18T01:30:21.824Z,3.72
2023-01-18T01:33:24.772Z,3.66
2023-01-18T01:36:28.424Z,3.60
2023-01-18T01:39:31.483Z,3.60
2023-01-18T01:42:34.047Z,3.62
2023-01-18T01:45:36.931Z,3.60
2023-01-18T01:48:39.648Z,3.58
2023-01-18T01:51:46.364Z,3.58
2023-01-18T01:54:55.041Z,3.54
2023-01-18T01:58:06.016Z,3.57
2023-01-18T02:01:09.295Z,3.58
2023-01-18T02:04:12.892Z,3.57
2023-01-18T02:07:15.484Z,3.59
2023-01-18T02:10:18.477Z,3.62
2023-01-18T02:13:23.615Z,3.75
2023-01-18T02:16:52.610Z,3.87
2023-01-18T02:20:21.651Z,3.85
2023-01-18T02:23:30.232Z,3.75
2023-01-18T02:26:50.990Z,3.75
2023-01-18T02:30:00.980Z,3.68
2023-01-18T02:33:26.916Z,3.68
2023-01-18T02:36:44.682Z,3.74
2023-01-18T02:40:11.551Z,3.74
2023-01-18T02:43:34.913Z,3.91
2023-01-18T02:46:39.016Z,4.20
2023-01-18T02:49:42.022Z,4.33
2023-01-18T02:52:51.357Z,4.49
2023-01-18T02:56:01.089Z,4.54
2023-01-18T02:59:10.183Z,4.63
2023-01-18T03:02:16.753Z,4.71
2023-01-18T03:05:22.171Z,4.66
2023-01-18T03:08:38.038Z,4.76
2023-01-18T03:12:04.574Z,4.73
2023-01-18T03:15:28.709Z,4.66
2023-01-18T03:19:01.317Z,4.69
2023-01-18T03:22:06.236Z,4.72
2023-01-18T03:25:13.039Z,4.54
2023-01-18T03:28:40.047Z,4.51
2023-01-18T03:32:09.466Z,4.52
2023-01-18T03:35:18.407Z,4.48
2023-01-18T03:38:22.044Z,4.57
2023-01-18T03:41:29.132Z,4.49
2023-01-18T03:44:43.747Z,4.48
2023-01-18T03:47:50.379Z,4.37
2023-01-18T03:51:30.641Z,4.36
2023-01-18T03:54:42.020Z,4.41
2023-01-18T03:57:54.574Z,4.43
2023-01-18T04:00:57.523Z,4.50
2023-01-18T04:04:00.776Z,4.53
2023-01-18T04:07:03.856Z,4.49
2023-01-18T04:10:07.696Z,4.59
2023-01-18T04:13:10.385Z,4.72
2023-01-18T04:16:13.597Z,4.67
2023-01-18T04:19:17.223Z,4.73
2023-01-18T04:22:20.241Z,4.61
2023-01-18T04:25:22.858Z,4.50
2023-01-18T04:28:27.600Z,4.47
2023-01-18T04:31:30.618Z,4.52
2023-01-18T04:34:33.876Z,4.43
2023-01-18T04:37:38.362Z,4.42
2023-01-18T04:40:41.326Z,4.39
2023-01-18T04:43:43.976Z,4.31
2023-01-18T04:46:47.877Z,4.24
2023-01-18T04:49:50.425Z,4.08
2023-01-18T04:52:53.259Z,4.00
2023-01-18T04:55:55.880Z,3.95
2023-01-18T04:58:58.823Z,3.93
2023-01-18T05:02:01.620Z,3.86
2023-01-18T05:05:05.629Z,3.79
2023-01-18T05:08:08.192Z,3.81
2023-01-18T05:11:17.038Z,3.75
2023-01-18T05:14:19.540Z,3.72
2023-01-18T05:17:27.601Z,3.69
2023-01-18T05:20:30.316Z,3.69
2023-01-18T05:23:33.155Z,3.65
2023-01-18T05:26:36.405Z,3.64
2023-01-18T05:29:39.606Z,3.72
2023-01-18T05:32:42.819Z,3.76
2023-01-18T05:35:50.167Z,3.70
2023-01-18T05:38:52.849Z,3.71
2023-01-18T05:41:55.692Z,3.80
2023-01-18T05:44:58.329Z,3.79
2023-01-18T05:48:01.245Z,3.82
2023-01-18T05:51:11.282Z,3.83
2023-01-18T05:54:14.113Z,3.78
2023-01-18T05:57:16.644Z,3.70
2023-01-18T06:00:20.014Z,3.69
2023-01-18T06:03:23.791Z,3.72
2023-01-18T06:06:26.257Z,3.64
2023-01-18T06:09:30.198Z,3.52
2023-01-18T06:12:33.215Z,3.54
2023-01-18T06:15:36.502Z,3.52
2023-01-18T06:18:39.919Z,3.49
2023-01-18T06:21:42.854Z,3.39
2023-01-18T06:24:45.442Z,3.32
2023-01-18T06:27:48.285Z,3.26
2023-01-18T06:30:55.125Z,3.38
2023-01-18T06:33:58.040Z,3.31
2023-01-18T06:37:00.547Z,3.24
2023-01-18T06:40:03.676Z,3.29
2023-01-18T06:43:08.587Z,3.24
2023-01-18T06:46:11.772Z,3.23
2023-01-18T06:49:14.603Z,3.25
2023-01-18T06:52:18.059Z,3.24
2023-01-18T06:55:21.273Z,3.18
2023-01-18T06:58:26.056Z,3.24
2023-01-18T07:01:28.848Z,3.24
2023-01-18T07:04:35.401Z,3.26
2023-01-18T07:07:38.336Z,3.25
2023-01-18T07:10:41.449Z,3.19
2023-01-18T07:13:44.018Z,3.20
2023-01-18T07:16:47.272Z,3.16
2023-01-18T07:19:50.010Z,3.18
2023-01-18T07:22:52.976Z,3.22
2023-01-18T07:26:16.644Z,3.24
2023-01-18T07:29:20.115Z,3.31
2023-01-18T07:32:22.938Z,3.28
2023-01-18T07:35:26.069Z,3.22
2023-01-18T07:38:28.651Z,3.19
2023-01-18T07:41:31.517Z,3.24
2023-01-18T07:44:34.141Z,3.18
2023-01-18T07:47:39.687Z,3.00
2023-01-18T07:50:42.239Z,3.07
2023-01-18T07:53:45.725Z,3.07
2023-01-18T07:56:48.285Z,3.06
2023-01-18T07:59:51.472Z,3.08
2023-01-18T08:02:56.448Z,3.18
2023-01-18T08:06:03.082Z,3.34
2023-01-18T08:09:05.799Z,3.53
2023-01-18T08:12:12.620Z,3.79
2023-01-18T08:15:15.270Z,3.93
2023-01-18T08:18:18.421Z,4.00
2023-01-18T08:21:21.354Z,3.99
2023-01-18T08:24:25.090Z,4.05
2023-01-18T08:27:28.286Z,3.93
2023-01-18T08:30:35.094Z,3.78
2023-01-18T08:33:39.206Z,3.82
2023-01-18T08:36:42.139Z,3.99
2023-01-18T08:39:44.770Z,3.96
2023-01-18T08:42:48.078Z,3.94
2023-01-18T08:45:50.991Z,3.91
2023-01-18T08:48:56.491Z,3.75
2023-01-18T08:51:59.627Z,3.71
2023-01-18T08:55:07.305Z,3.89
2023-01-18T08:58:09.876Z,3.96
2023-01-18T09:01:13.483Z,4.14
2023-01-18T09:04:16.149Z,4.39
2023-01-18T09:07:19.905Z,4.41
2023-01-18T09:10:23.652Z,4.43
2023-01-18T09:13:26.687Z,4.34
2023-01-18T09:16:31.120Z,4.29
2023-01-18T09:19:34.194Z,4.42
2023-01-18T09:22:37.600Z,4.71
2023-01-18T09:25:41.106Z,5.10
2023-01-18T09:28:45.083Z,5.47
2023-01-18T09:31:49.255Z,5.79
2023-01-18T09:34:53.090Z,5.91
2023-01-18T09:37:56.881Z,5.90
2023-01-18T09:40:59.568Z,5.19
2023-01-18T09:44:16.727Z,4.77
2023-01-18T09:47:28.848Z,4.29
2023-01-18T09:50:38.715Z,4.28
2023-01-18T09:54:09.961Z,4.23
2023-01-18T09:57:31.216Z,4.33
2023-01-18T10:00:39.875Z,4.48
2023-01-18T10:03:54.100Z,4.57
2023-01-18T10:07:07.741Z,4.67
2023-01-18T10:10:16.328Z,4.77
2023-01-18T10:14:10.590Z,4.93
2023-01-18T10:17:26.138Z,4.91
2023-01-18T10:20:52.317Z,5.11
2023-01-18T10:24:16.539Z,4.91
2023-01-18T10:27:41.528Z,4.79
2023-01-18T10:31:05.270Z,4.74
2023-01-18T10:34:20.769Z,4.91
2023-01-18T10:37:35.789Z,5.06
2023-01-18T10:40:39.695Z,4.99
2023-01-18T10:43:44.472Z,5.12
2023-01-18T10:46:47.071Z,5.21
2023-01-18T10:49:55.671Z,5.22
2023-01-18T10:52:58.617Z,5.06
2023-01-18T10:56:10.638Z,5.04
2023-01-18T10:59:26.956Z,5.21
2023-01-18T11:02:37.657Z,5.36
2023-01-18T11:05:45.566Z,5.45
2023-01-18T11:08:49.643Z,5.56
2023-01-18T11:12:11.184Z,5.66
2023-01-18T11:15:14.132Z,5.79
2023-01-18T11:18:17.840Z,5.83
2023-01-18T11:21:20.942Z,6.00
2023-01-18T11:24:28.315Z,6.11
2023-01-18T11:27:31.319Z,6.26
2023-01-18T11:30:34.863Z,6.33
2023-01-18T11:34:01.439Z,6.28
2023-01-18T11:37:24.257Z,6.35
2023-01-18T11:40:32.726Z,6.55
2023-01-18T11:43:37.941Z,6.83
2023-01-18T11:46:49.697Z,6.86
2023-01-18T11:50:03.773Z,7.00
2023-01-18T11:53:24.065Z,6.82
2023-01-18T11:56:42.465Z,7.10
2023-01-18T11:59:46.942Z,7.42
2023-01-18T12:03:15.461Z,7.62
2023-01-18T12:06:41.470Z,7.80
2023-01-18T12:09:54.142Z,7.85
2023-01-18T12:13:30.522Z,7.58
2023-01-18T12:16:41.596Z,7.73
2023-01-18T12:19:50.766Z,7.88
2023-01-18T12:23:03.737Z,7.73
2023-01-18T12:26:28.106Z,7.67
2023-01-18T12:29:54.496Z,7.83
2023-01-18T12:33:42.866Z,7.99
2023-01-18T12:36:55.917Z,8.11
2023-01-18T12:40:26.038Z,8.47
2023-01-18T12:43:56.214Z,8.64
2023-01-18T12:47:06.290Z,8.86
2023-01-18T12:50:26.204Z,8.86
2023-01-18T12:53:40.228Z,8.49
2023-01-18T12:56:46.570Z,8.55
2023-01-18T13:00:09.331Z,8.38
2023-01-18T13:03:16.467Z,8.54
2023-01-18T13:06:21.197Z,8.64
2023-01-18T13:09:33.257Z,8.85
2023-01-18T13:12:36.705Z,9.00
2023-01-18T13:15:59.927Z,8.82
2023-01-18T13:19:06.279Z,8.28
2023-01-18T13:22:26.337Z,8.31
2023-01-18T13:25:29.445Z,8.14
2023-01-18T13:28:32.406Z,7.96
2023-01-18T13:31:35.673Z,7.94
2023-01-18T13:34:48.033Z,7.93
2023-01-18T13:37:56.042Z,7.83
2023-01-18T13:41:04.427Z,7.66
2023-01-18T13:44:26.894Z,7.78
2023-01-18T13:47:35.588Z,7.69
2023-01-18T13:50:39.903Z,7.95
2023-01-18T13:53:50.139Z,8.05
2023-01-18T13:57:04.148Z,7.90
2023-01-18T14:00:21.547Z,7.68
2023-01-18T14:03:31.698Z,7.64
2023-01-18T14:06:38.065Z,7.62
2023-01-18T14:09:46.488Z,7.63
2023-01-18T14:12:52.179Z,7.71
2023-01-18T14:15:55.575Z,7.59
2023-01-18T14:19:15.436Z,7.65
2023-01-18T14:22:48.305Z,7.54
2023-01-18T14:26:05.516Z,7.49
2023-01-18T14:29:17.492Z,7.37
2023-01-18T14:32:26.107Z,7.42
2023-01-18T14:35:28.987Z,7.28
2023-01-18T14:38:31.535Z,7.21
2023-01-18T14:41:34.694Z,7.21
2023-01-18T14:44:57.386Z,6.94
2023-01-18T14:48:11.067Z,6.88
2023-01-18T14:51:18.775Z,6.77
2023-01-18T14:54:24.696Z,6.66
2023-01-18T14:57:27.380Z,6.54
2023-01-18T15:00:30.697Z,6.59
2023-01-18T15:03:33.289Z,6.40
2023-01-18T15:06:48.862Z,6.34
2023-01-18T15:09:52.119Z,6.32
2023-01-18T15:12:59.263Z,6.21
2023-01-18T15:16:02.234Z,6.11
2023-01-18T15:19:05.473Z,6.10
2023-01-18T15:22:12.314Z,6.03
2023-01-18T15:25:31.263Z,5.96
2023-01-18T15:28:34.188Z,5.99
2023-01-18T15:31:55.290Z,5.93
2023-01-18T15:34:59.032Z,5.89
2023-01-18T15:38:05.010Z,5.83
2023-01-18T15:41:14.676Z,5.71
2023-01-18T15:44:33.147Z,5.63
2023-01-18T15:47:39.181Z,5.55
2023-01-18T15:50:49.016Z,5.47
2023-01-18T15:53:56.306Z,5.42
2023-01-18T15:57:18.098Z,5.37
2023-01-18T16:00:44.320Z,5.43
2023-01-18T16:03:50.305Z,5.48
2023-01-18T16:06:52.941Z,5.44
2023-01-18T16:10:17.892Z,5.61
2023-01-18T16:13:26.302Z,5.61
2023-01-18T16:16:29.900Z,5.57
2023-01-18T16:19:44.290Z,5.60
2023-01-18T16:22:48.259Z,5.60
2023-01-18T16:25:54.100Z,5.75
2023-01-18T16:29:08.284Z,5.87
2023-01-18T16:32:21.646Z,6.01
2023-01-18T16:35:25.362Z,5.96
2023-01-18T16:38:28.134Z,5.97
2023-01-18T16:41:32.470Z,5.83
2023-01-18T16:44:36.157Z,5.72
2023-01-18T16:47:39.026Z,5.57
2023-01-18T16:50:42.551Z,5.54
2023-01-18T16:53:45.805Z,5.43
2023-01-18T16:56:48.933Z,5.34
2023-01-18T16:59:51.990Z,5.31
2023-01-18T17:02:55.013Z,5.28
2023-01-18T17:05:57.939Z,5.23
2023-01-18T17:09:00.457Z,5.22
2023-01-18T17:12:03.455Z,5.27
2023-01-18T17:15:07.527Z,5.14
2023-01-18T17:18:24.070Z,5.07
2023-01-18T17:21:27.245Z,5.09
2023-01-18T17:24:30.244Z,5.15
2023-01-18T17:27:33.949Z,5.14
2023-01-18T17:30:37.429Z,5.16
2023-01-18T17:33:40.452Z,5.13
2023-01-18T17:36:43.699Z,5.14
2023-01-18T17:40:02.444Z,5.14
2023-01-18T17:43:07.323Z,5.38
2023-01-18T17:46:10.966Z,5.30
2023-01-18T17:49:13.879Z,5.22
2023-01-18T17:52:16.484Z,5.17
2023-01-18T17:55:27.242Z,5.10
2023-01-18T17:58:30.337Z,5.10
2023-01-18T18:01:33.561Z,5.07
2023-01-18T18:04:37.093Z,5.06
2023-01-18T18:07:40.000Z,5.04
2023-01-18T18:10:43.928Z,4.98
2023-01-18T18:13:46.734Z,5.07
2023-01-18T18:16:49.883Z,5.04
2023-01-18T18:19:52.891Z,4.93
2023-01-18T18:22:56.211Z,4.91
2023-01-18T18:26:00.283Z,5.01
2023-01-18T18:29:04.179Z,5.13
2023-01-18T18:32:08.988Z,5.23
2023-01-18T18:35:24.354Z,5.12
2023-01-18T18:38:28.073Z,5.15
2023-01-18T18:41:31.583Z,5.11
2023-01-18T18:44:34.171Z,5.09
2023-01-18T18:47:38.862Z,5.06
2023-01-18T18:50:42.082Z,5.04
2023-01-18T18:53:45.259Z,5.02
2023-01-18T18:56:48.654Z,5.10
2023-01-18T18:59:52.329Z,5.03
2023-01-18T19:03:03.273Z,5.05
2023-01-18T19:06:06.771Z,5.03
2023-01-18T19:09:09.651Z,4.92
2023-01-18T19:12:14.762Z,4.86
2023-01-18T19:15:17.564Z,4.83
2023-01-18T19:18:20.579Z,4.79
2023-01-18T19:21:23.499Z,4.81
2023-01-18T19:24:26.533Z,4.77
2023-01-18T19:27:29.450Z,4.78
2023-01-18T19:30:33.358Z,4.70
2023-01-18T19:33:36.829Z,4.66
2023-01-18T19:36:41.414Z,4.66
2023-01-18T19:39:44.276Z,4.77
2023-01-18T19:42:54.505Z,4.78
2023-01-18T19:45:59.156Z,4.83
2023-01-18T19:49:03.293Z,4.73
2023-01-18T19:52:06.442Z,4.69
2023-01-18T19:55:09.754Z,4.67
2023-01-18T19:58:12.698Z,4.65
2023-01-18T20:01:30.192Z,4.66
2023-01-18T20:04:38.022Z,4.71
2023-01-18T20:07:41.149Z,4.67
2023-01-18T20:10:44.241Z,4.69
2023-01-18T20:13:50.985Z,4.75
2023-01-18T20:16:54.191Z,4.71
2023-01-18T20:19:57.184Z,4.64
2023-01-18T20:23:04.194Z,4.66
2023-01-18T20:26:07.827Z,4.63
2023-01-18T20:29:11.482Z,4.62
2023-01-18T20:32:17.447Z,4.60
2023-01-18T20:35:20.980Z,4.58
2023-01-18T20:38:23.709Z,4.65
2023-01-18T20:41:26.758Z,4.64
2023-01-18T20:44:30.042Z,4.59
2023-01-18T20:47:32.998Z,4.57
2023-01-18T20:50:35.842Z,4.57
2023-01-18T20:53:38.984Z,4.55
2023-01-18T20:56:42.109Z,4.61
2023-01-18T20:59:45.332Z,4.59
2023-01-18T21:02:48.654Z,4.63
2023-01-18T21:05:53.497Z,4.59
2023-01-18T21:08:57.517Z,4.49
2023-01-18T21:12:02.838Z,4.45
2023-01-18T21:15:07.500Z,4.47
2023-01-18T21:18:10.601Z,4.47
2023-01-18T21:21:13.357Z,4.59
2023-01-18T21:24:17.166Z,4.58
2023-01-18T21:27:19.798Z,4.49
2023-01-18T21:30:22.731Z,4.51
2023-01-18T21:33:25.493Z,4.62
2023-01-18T21:36:28.469Z,4.59
2023-01-18T21:39:31.218Z,4.45
2023-01-18T21:42:52.436Z,4.36
2023-01-18T21:45:55.137Z,4.38
2023-01-18T21:49:05.286Z,4.37
2023-01-18T21:52:26.135Z,4.37
2023-01-18T21:55:29.265Z,4.36
2023-01-18T21:58:50.438Z,4.34
2023-01-18T22:01:53.605Z,4.31
2023-01-18T22:04:58.146Z,4.31
2023-01-18T22:08:01.125Z,4.24
2023-01-18T22:11:04.843Z,4.31
2023-01-18T22:14:08.704Z,4.26
2023-01-18T22:17:13.230Z,4.26
2023-01-18T22:20:16.504Z,4.21
2023-01-18T22:23:19.397Z,4.21
2023-01-18T22:26:24.044Z,4.20
2023-01-18T22:29:26.945Z,4.17
2023-01-18T22:32:29.639Z,4.14
2023-01-18T22:35:32.442Z,4.16
2023-01-18T22:38:35.123Z,4.19
2023-01-18T22:41:39.180Z,4.22
2023-01-18T22:44:41.733Z,4.23
2023-01-18T22:47:44.560Z,4.25
2023-01-18T22:50:57.206Z,4.21
2023-01-18T22:53:59.978Z,4.24
2023-01-18T22:57:02.525Z,4.20
2023-01-18T23:00:09.381Z,4.23
2023-01-18T23:03:12.760Z,4.16
2023-01-18T23:06:16.651Z,4.13
2023-01-18T23:09:19.333Z,4.18
2023-01-18T23:12:22.181Z,4.19
2023-01-18T23:15:43.683Z,4.15
2023-01-18T23:18:46.892Z,4.15
2023-01-18T23:21:49.639Z,4.18
2023-01-18T23:24:52.451Z,4.18
2023-01-18T23:27:55.072Z,4.18
2023-01-18T23:30:57.937Z,4.23
2023-01-18T23:34:00.497Z,4.20
2023-01-18T23:37:03.373Z,4.11
2023-01-18T23:40:25.422Z,4.14
2023-01-18T23:43:46.854Z,4.09
2023-01-18T23:47:08.456Z,4.10
2023-01-18T23:50:30.385Z,4.03
2023-01-18T23:53:51.293Z,3.94
2023-01-18T23:56:54.759Z,3.94
2023-01-18T23:59:57.629Z,3.94
